Lewistown Municipal Airport
KLWT : rendu visible

Aérodrome :











RETROUVEZ-NOUS SUR...

 
LOGIN :

S'inscrire | Disclaimer

   EN    FR    IT 

 









Légende :    VFR   VFR Marginal   IFR   IFR Intensif   IFR Très Intensif
Visi : 
Plafond : 
>= 8 km
>= 3000ft
5 à 8 km
1000 à 3000 ft
1500m à 5 km
500 à 1000 ft
800 à 1500m
200 à 500 ft
< 800m
< 200 ft
Symboles :   Orages  Brouillard  Fortes neiges  Fortes précipitations  Vent > 20 kt






- Altitude de l'aérodrome : 4170 ft
- Code IATA : LWT


KLWT - Lewistown Municipal

DERNIER METAR :
  • 231654Z AUTO 11009KT 10SM BKN095 01/M06 A2992 RMK AO2 SLP154 T00061056

METARs EXPIRÉS :
  • 231554Z AUTO 11009KT 10SM CLR M01/M07 A2994 RMK AO2 SLP167 T10111067
  • 231454Z AUTO 12009KT 10SM BKN095 BKN110 M02/M07 A2995 RMK AO2 SLP170 T10221072 58009

TAF KLWT
Valide du 23 à 12h jusqu'au 24 à 12h UTC


231140Z 2312/2412 VRB05KT P6SM SCT040 BKN090
PROB30 2323/2402 3SM -SN BR SCT015 BKN035
FM240200 23013G23KT 3SM -SN BR SCT010 BKN025
FM240600 27019G27KT P6SM SCT035 BKN070 WS020/28050KT



MET'MAP, la Météo Aéronautique d'un coup d'oeil ! - Copyright ORBIFLY Décembre 2007 - Disclaimer

ORBIFLY MET'MAP TEAM :

Programmation & Développement : Alexandra Zaïnal
Sur une idée originale de : Baudouin d'Aumeries
Assistance à la programmation : Marc-Olivier Méhu
Soutien technique & logistique : Manuel Goepfert

Contact : metmap@orbifly.com




SOURCES & CREDITS :

   NOAA       Earth
Advisory